sensor_id;sensor_type;location;lat;lon;timestamp;temperature;humidity
61412;DHT22;47278;49.732;7.690;2023-06-19T00:01:18;20.00;99.90
61412;DHT22;47278;49.732;7.690;2023-06-19T00:03:44;19.90;99.90
61412;DHT22;47278;49.732;7.690;2023-06-19T00:06:10;19.80;99.90
61412;DHT22;47278;49.732;7.690;2023-06-19T00:08:38;20.10;99.90
61412;DHT22;47278;49.732;7.690;2023-06-19T00:11:06;20.10;99.90
61412;DHT22;47278;49.732;7.690;2023-06-19T00:13:32;20.10;99.90
61412;DHT22;47278;49.732;7.690;2023-06-19T00:15:59;20.10;99.90
61412;DHT22;47278;49.732;7.690;2023-06-19T00:18:26;20.10;99.90
61412;DHT22;47278;49.732;7.690;2023-06-19T00:20:52;20.00;99.90
61412;DHT22;47278;49.732;7.690;2023-06-19T00:23:19;20.00;99.90
61412;DHT22;47278;49.732;7.690;2023-06-19T00:25:45;20.00;99.90
61412;DHT22;47278;49.732;7.690;2023-06-19T00:28:11;20.00;99.90
61412;DHT22;47278;49.732;7.690;2023-06-19T00:30:40;19.90;99.90
61412;DHT22;47278;49.732;7.690;2023-06-19T00:33:06;19.90;99.90
61412;DHT22;47278;49.732;7.690;2023-06-19T00:35:32;19.90;99.90
61412;DHT22;47278;49.732;7.690;2023-06-19T00:37:58;19.80;99.90
61412;DHT22;47278;49.732;7.690;2023-06-19T00:40:28;19.80;99.90
61412;DHT22;47278;49.732;7.690;2023-06-19T00:42:54;19.60;99.90
61412;DHT22;47278;49.732;7.690;2023-06-19T00:45:20;19.60;99.90
61412;DHT22;47278;49.732;7.690;2023-06-19T00:47:46;19.70;99.90
61412;DHT22;47278;49.732;7.690;2023-06-19T00:50:12;19.60;99.90
61412;DHT22;47278;49.732;7.690;2023-06-19T00:52:37;19.50;99.90
61412;DHT22;47278;49.732;7.690;2023-06-19T00:55:04;19.50;99.90
61412;DHT22;47278;49.732;7.690;2023-06-19T00:57:30;19.50;99.90
61412;DHT22;47278;49.732;7.690;2023-06-19T00:59:57;19.50;99.90
61412;DHT22;47278;49.732;7.690;2023-06-19T01:02:23;19.50;99.90
61412;DHT22;47278;49.732;7.690;2023-06-19T01:04:49;19.40;99.90
61412;DHT22;47278;49.732;7.690;2023-06-19T01:07:18;19.40;99.90
61412;DHT22;47278;49.732;7.690;2023-06-19T01:09:50;19.40;99.90
61412;DHT22;47278;49.732;7.690;2023-06-19T01:12:18;19.40;99.90
61412;DHT22;47278;49.732;7.690;2023-06-19T01:14:56;19.50;99.90
61412;DHT22;47278;49.732;7.690;2023-06-19T01:17:22;19.50;99.90
61412;DHT22;47278;49.732;7.690;2023-06-19T01:19:48;19.50;99.90
61412;DHT22;47278;49.732;7.690;2023-06-19T01:22:27;19.50;99.90
61412;DHT22;47278;49.732;7.690;2023-06-19T01:24:52;19.50;99.90
61412;DHT22;47278;49.732;7.690;2023-06-19T01:27:18;19.50;99.90
61412;DHT22;47278;49.732;7.690;2023-06-19T01:29:44;19.50;99.90
61412;DHT22;47278;49.732;7.690;2023-06-19T01:32:11;19.40;99.90
61412;DHT22;47278;49.732;7.690;2023-06-19T01:34:39;19.40;99.90
61412;DHT22;47278;49.732;7.690;2023-06-19T01:37:05;19.40;99.90
61412;DHT22;47278;49.732;7.690;2023-06-19T01:39:32;19.30;99.90
61412;DHT22;47278;49.732;7.690;2023-06-19T01:41:58;19.30;99.90
61412;DHT22;47278;49.732;7.690;2023-06-19T01:44:24;19.30;99.90
61412;DHT22;47278;49.732;7.690;2023-06-19T01:46:50;19.20;99.90
61412;DHT22;47278;49.732;7.690;2023-06-19T01:49:16;19.10;99.90
61412;DHT22;47278;49.732;7.690;2023-06-19T01:51:42;19.00;99.90
61412;DHT22;47278;49.732;7.690;2023-06-19T01:54:08;18.90;99.90
61412;DHT22;47278;49.732;7.690;2023-06-19T01:56:34;18.90;99.90
61412;DHT22;47278;49.732;7.690;2023-06-19T01:59:00;18.90;99.90
61412;DHT22;47278;49.732;7.690;2023-06-19T02:01:26;19.00;99.90
61412;DHT22;47278;49.732;7.690;2023-06-19T02:03:52;19.00;99.90
61412;DHT22;47278;49.732;7.690;2023-06-19T02:06:17;19.00;99.90
61412;DHT22;47278;49.732;7.690;2023-06-19T02:08:44;19.00;99.90
61412;DHT22;47278;49.732;7.690;2023-06-19T02:11:09;19.10;99.90
61412;DHT22;47278;49.732;7.690;2023-06-19T02:13:35;19.10;99.90
61412;DHT22;47278;49.732;7.690;2023-06-19T02:16:01;19.00;99.90
61412;DHT22;47278;49.732;7.690;2023-06-19T02:18:26;18.80;99.90
61412;DHT22;47278;49.732;7.690;2023-06-19T02:20:52;18.80;99.90
61412;DHT22;47278;49.732;7.690;2023-06-19T02:23:18;18.80;99.90
61412;DHT22;47278;49.732;7.690;2023-06-19T02:25:44;18.90;99.90
61412;DHT22;47278;49.732;7.690;2023-06-19T02:28:09;18.90;99.90
61412;DHT22;47278;49.732;7.690;2023-06-19T02:30:35;19.00;99.90
61412;DHT22;47278;49.732;7.690;2023-06-19T02:33:01;19.10;99.90
61412;DHT22;47278;49.732;7.690;2023-06-19T02:35:27;19.20;99.90
61412;DHT22;47278;49.732;7.690;2023-06-19T02:37:53;19.20;99.90
61412;DHT22;47278;49.732;7.690;2023-06-19T02:40:19;19.20;99.90
61412;DHT22;47278;49.732;7.690;2023-06-19T02:42:45;19.30;99.90
61412;DHT22;47278;49.732;7.690;2023-06-19T02:45:10;19.30;99.90
61412;DHT22;47278;49.732;7.690;2023-06-19T02:47:37;19.40;99.90
61412;DHT22;47278;49.732;7.690;2023-06-19T02:50:03;19.50;99.90
61412;DHT22;47278;49.732;7.690;2023-06-19T02:52:29;19.70;99.90
61412;DHT22;47278;49.732;7.690;2023-06-19T02:54:55;19.70;99.90
61412;DHT22;47278;49.732;7.690;2023-06-19T02:57:21;19.70;99.90
61412;DHT22;47278;49.732;7.690;2023-06-19T02:59:46;19.70;99.90
61412;DHT22;47278;49.732;7.690;2023-06-19T03:02:12;19.80;99.90
61412;DHT22;47278;49.732;7.690;2023-06-19T03:04:39;20.00;99.90
61412;DHT22;47278;49.732;7.690;2023-06-19T03:07:06;19.90;99.90
61412;DHT22;47278;49.732;7.690;2023-06-19T03:09:32;19.80;99.90
61412;DHT22;47278;49.732;7.690;2023-06-19T03:11:58;19.80;99.90
61412;DHT22;47278;49.732;7.690;2023-06-19T03:14:23;19.90;99.90
61412;DHT22;47278;49.732;7.690;2023-06-19T03:16:49;19.90;99.90
61412;DHT22;47278;49.732;7.690;2023-06-19T03:19:15;19.80;99.90
61412;DHT22;47278;49.732;7.690;2023-06-19T03:21:43;19.80;99.90
61412;DHT22;47278;49.732;7.690;2023-06-19T03:24:09;19.80;99.90
61412;DHT22;47278;49.732;7.690;2023-06-19T03:26:35;19.80;99.90
61412;DHT22;47278;49.732;7.690;2023-06-19T03:29:01;19.80;99.90
61412;DHT22;47278;49.732;7.690;2023-06-19T03:31:26;19.80;99.90
61412;DHT22;47278;49.732;7.690;2023-06-19T03:33:52;19.80;99.90
61412;DHT22;47278;49.732;7.690;2023-06-19T03:36:18;19.80;99.90
61412;DHT22;47278;49.732;7.690;2023-06-19T03:38:44;19.80;99.90
61412;DHT22;47278;49.732;7.690;2023-06-19T03:41:09;19.80;99.90
61412;DHT22;47278;49.732;7.690;2023-06-19T03:43:35;19.70;99.90
61412;DHT22;47278;49.732;7.690;2023-06-19T03:46:01;19.70;99.90
61412;DHT22;47278;49.732;7.690;2023-06-19T03:48:27;19.60;99.90
61412;DHT22;47278;49.732;7.690;2023-06-19T03:50:53;19.60;99.90
61412;DHT22;47278;49.732;7.690;2023-06-19T03:53:19;19.60;99.90
61412;DHT22;47278;49.732;7.690;2023-06-19T03:55:45;19.60;99.90
61412;DHT22;47278;49.732;7.690;2023-06-19T03:58:11;19.60;99.90
61412;DHT22;47278;49.732;7.690;2023-06-19T04:00:36;19.60;99.90
61412;DHT22;47278;49.732;7.690;2023-06-19T04:03:03;19.60;99.90
61412;DHT22;47278;49.732;7.690;2023-06-19T04:05:28;19.60;99.90
61412;DHT22;47278;49.732;7.690;2023-06-19T04:07:54;19.60;99.90
61412;DHT22;47278;49.732;7.690;2023-06-19T04:10:20;19.60;99.90
61412;DHT22;47278;49.732;7.690;2023-06-19T04:12:46;19.60;99.90
61412;DHT22;47278;49.732;7.690;2023-06-19T04:15:13;19.50;99.90
61412;DHT22;47278;49.732;7.690;2023-06-19T04:17:38;19.60;99.90
61412;DHT22;47278;49.732;7.690;2023-06-19T04:20:04;19.60;99.90
61412;DHT22;47278;49.732;7.690;2023-06-19T04:22:39;19.60;99.90
61412;DHT22;47278;49.732;7.690;2023-06-19T04:25:06;19.60;99.90
61412;DHT22;47278;49.732;7.690;2023-06-19T04:27:31;19.60;99.90
61412;DHT22;47278;49.732;7.690;2023-06-19T04:29:58;19.60;99.90
61412;DHT22;47278;49.732;7.690;2023-06-19T04:32:24;19.60;99.90
61412;DHT22;47278;49.732;7.690;2023-06-19T04:34:50;19.60;99.90
61412;DHT22;47278;49.732;7.690;2023-06-19T04:37:16;19.70;99.90
61412;DHT22;47278;49.732;7.690;2023-06-19T04:39:45;19.60;99.90
61412;DHT22;47278;49.732;7.690;2023-06-19T04:42:12;19.70;99.90
61412;DHT22;47278;49.732;7.690;2023-06-19T04:44:38;19.70;99.90
61412;DHT22;47278;49.732;7.690;2023-06-19T04:47:04;19.70;99.90
61412;DHT22;47278;49.732;7.690;2023-06-19T04:49:30;19.70;99.90
61412;DHT22;47278;49.732;7.690;2023-06-19T04:51:56;19.80;99.90
61412;DHT22;47278;49.732;7.690;2023-06-19T04:54:22;19.70;99.90
61412;DHT22;47278;49.732;7.690;2023-06-19T04:56:48;19.80;99.90
61412;DHT22;47278;49.732;7.690;2023-06-19T04:59:14;19.80;99.90
61412;DHT22;47278;49.732;7.690;2023-06-19T05:01:43;19.80;99.90
61412;DHT22;47278;49.732;7.690;2023-06-19T05:04:09;19.80;99.90
61412;DHT22;47278;49.732;7.690;2023-06-19T05:06:36;19.90;99.90
61412;DHT22;47278;49.732;7.690;2023-06-19T05:09:03;19.90;99.90
61412;DHT22;47278;49.732;7.690;2023-06-19T05:11:30;19.90;99.90
61412;DHT22;47278;49.732;7.690;2023-06-19T05:13:56;19.90;99.90
61412;DHT22;47278;49.732;7.690;2023-06-19T05:16:22;19.90;99.90
61412;DHT22;47278;49.732;7.690;2023-06-19T05:18:48;20.00;99.90
61412;DHT22;47278;49.732;7.690;2023-06-19T05:21:16;19.90;99.90
61412;DHT22;47278;49.732;7.690;2023-06-19T05:23:42;20.00;99.90
61412;DHT22;47278;49.732;7.690;2023-06-19T05:26:08;20.00;99.90
61412;DHT22;47278;49.732;7.690;2023-06-19T05:28:34;20.10;99.90
61412;DHT22;47278;49.732;7.690;2023-06-19T05:31:00;20.00;99.90
61412;DHT22;47278;49.732;7.690;2023-06-19T05:33:25;20.10;99.90
61412;DHT22;47278;49.732;7.690;2023-06-19T05:35:52;20.10;99.90
61412;DHT22;47278;49.732;7.690;2023-06-19T05:38:19;20.20;99.90
61412;DHT22;47278;49.732;7.690;2023-06-19T05:40:45;20.20;99.90
61412;DHT22;47278;49.732;7.690;2023-06-19T05:43:12;20.30;99.90
61412;DHT22;47278;49.732;7.690;2023-06-19T05:45:38;20.40;99.90
61412;DHT22;47278;49.732;7.690;2023-06-19T05:48:03;20.40;99.90
61412;DHT22;47278;49.732;7.690;2023-06-19T05:50:29;20.40;99.90
61412;DHT22;47278;49.732;7.690;2023-06-19T05:52:56;20.50;99.90
61412;DHT22;47278;49.732;7.690;2023-06-19T05:55:22;20.50;99.90
61412;DHT22;47278;49.732;7.690;2023-06-19T05:57:50;20.60;99.90
61412;DHT22;47278;49.732;7.690;2023-06-19T06:00:16;20.70;99.90
61412;DHT22;47278;49.732;7.690;2023-06-19T06:02:42;20.70;99.90
61412;DHT22;47278;49.732;7.690;2023-06-19T06:05:08;20.80;99.90
61412;DHT22;47278;49.732;7.690;2023-06-19T06:07:36;20.90;99.90
61412;DHT22;47278;49.732;7.690;2023-06-19T06:10:02;21.10;99.90
61412;DHT22;47278;49.732;7.690;2023-06-19T06:12:28;21.20;99.90
61412;DHT22;47278;49.732;7.690;2023-06-19T06:14:54;21.30;99.90
61412;DHT22;47278;49.732;7.690;2023-06-19T06:17:20;21.30;99.90
61412;DHT22;47278;49.732;7.690;2023-06-19T06:19:45;21.40;99.90
61412;DHT22;47278;49.732;7.690;2023-06-19T06:22:11;21.40;99.90
61412;DHT22;47278;49.732;7.690;2023-06-19T06:24:37;21.50;99.90
61412;DHT22;47278;49.732;7.690;2023-06-19T06:27:04;21.50;99.90
61412;DHT22;47278;49.732;7.690;2023-06-19T06:32:33;21.60;99.90
61412;DHT22;47278;49.732;7.690;2023-06-19T06:34:59;21.80;99.90
61412;DHT22;47278;49.732;7.690;2023-06-19T06:37:25;21.80;99.90
61412;DHT22;47278;49.732;7.690;2023-06-19T06:39:51;21.80;99.90
61412;DHT22;47278;49.732;7.690;2023-06-19T06:42:17;21.90;99.90
61412;DHT22;47278;49.732;7.690;2023-06-19T06:44:42;20.10;99.90
61412;DHT22;47278;49.732;7.690;2023-06-19T06:47:08;21.70;99.90
61412;DHT22;47278;49.732;7.690;2023-06-19T06:49:34;21.80;99.90
61412;DHT22;47278;49.732;7.690;2023-06-19T06:52:05;22.00;99.90
61412;DHT22;47278;49.732;7.690;2023-06-19T06:54:30;22.00;99.90
61412;DHT22;47278;49.732;7.690;2023-06-19T06:56:57;21.90;99.90
61412;DHT22;47278;49.732;7.690;2023-06-19T06:59:25;21.90;99.90
61412;DHT22;47278;49.732;7.690;2023-06-19T07:01:55;21.90;99.90
61412;DHT22;47278;49.732;7.690;2023-06-19T07:04:21;21.90;99.90
61412;DHT22;47278;49.732;7.690;2023-06-19T07:06:47;21.80;99.90
61412;DHT22;47278;49.732;7.690;2023-06-19T07:09:13;21.70;99.90
61412;DHT22;47278;49.732;7.690;2023-06-19T07:11:40;21.70;99.90
61412;DHT22;47278;49.732;7.690;2023-06-19T07:14:09;21.80;99.90
61412;DHT22;47278;49.732;7.690;2023-06-19T07:16:35;21.90;99.90
61412;DHT22;47278;49.732;7.690;2023-06-19T07:19:01;22.00;99.90
61412;DHT22;47278;49.732;7.690;2023-06-19T07:21:27;22.00;99.90
61412;DHT22;47278;49.732;7.690;2023-06-19T07:23:53;22.00;99.90
61412;DHT22;47278;49.732;7.690;2023-06-19T07:26:19;22.00;99.90
61412;DHT22;47278;49.732;7.690;2023-06-19T07:28:45;22.10;99.90
61412;DHT22;47278;49.732;7.690;2023-06-19T07:31:10;22.20;99.90
61412;DHT22;47278;49.732;7.690;2023-06-19T07:33:36;22.50;99.90
61412;DHT22;47278;49.732;7.690;2023-06-19T07:36:02;22.60;99.90
61412;DHT22;47278;49.732;7.690;2023-06-19T07:38:30;22.60;99.90
61412;DHT22;47278;49.732;7.690;2023-06-19T07:40:56;22.50;99.90
61412;DHT22;47278;49.732;7.690;2023-06-19T07:43:22;22.50;99.90
61412;DHT22;47278;49.732;7.690;2023-06-19T07:45:48;22.40;99.90
61412;DHT22;47278;49.732;7.690;2023-06-19T07:48:14;22.40;99.90
61412;DHT22;47278;49.732;7.690;2023-06-19T07:50:40;22.70;99.90
61412;DHT22;47278;49.732;7.690;2023-06-19T07:53:06;23.60;99.90
61412;DHT22;47278;49.732;7.690;2023-06-19T07:55:32;22.80;99.90
61412;DHT22;47278;49.732;7.690;2023-06-19T07:57:57;22.80;99.90
61412;DHT22;47278;49.732;7.690;2023-06-19T08:00:23;22.70;99.90
61412;DHT22;47278;49.732;7.690;2023-06-19T08:02:49;23.00;99.90
61412;DHT22;47278;49.732;7.690;2023-06-19T08:05:15;23.30;99.90
61412;DHT22;47278;49.732;7.690;2023-06-19T08:07:41;23.70;99.90
61412;DHT22;47278;49.732;7.690;2023-06-19T08:10:07;23.80;99.90
61412;DHT22;47278;49.732;7.690;2023-06-19T08:12:32;23.80;99.90
61412;DHT22;47278;49.732;7.690;2023-06-19T08:14:58;23.80;99.90
61412;DHT22;47278;49.732;7.690;2023-06-19T08:17:24;23.70;99.90
61412;DHT22;47278;49.732;7.690;2023-06-19T08:19:50;23.70;99.90
61412;DHT22;47278;49.732;7.690;2023-06-19T08:22:16;23.40;99.90
61412;DHT22;47278;49.732;7.690;2023-06-19T08:24:42;23.40;99.90
61412;DHT22;47278;49.732;7.690;2023-06-19T08:27:07;23.50;99.90
61412;DHT22;47278;49.732;7.690;2023-06-19T08:29:33;23.70;99.90
61412;DHT22;47278;49.732;7.690;2023-06-19T08:31:59;23.90;99.90
61412;DHT22;47278;49.732;7.690;2023-06-19T08:34:25;24.20;99.90
61412;DHT22;47278;49.732;7.690;2023-06-19T08:36:51;24.60;99.90
61412;DHT22;47278;49.732;7.690;2023-06-19T08:39:17;24.40;99.90
61412;DHT22;47278;49.732;7.690;2023-06-19T08:41:42;23.90;99.90
61412;DHT22;47278;49.732;7.690;2023-06-19T08:44:08;24.00;99.90
61412;DHT22;47278;49.732;7.690;2023-06-19T08:46:35;24.40;99.90
61412;DHT22;47278;49.732;7.690;2023-06-19T08:49:05;24.20;99.90
61412;DHT22;47278;49.732;7.690;2023-06-19T08:51:31;24.40;99.90
61412;DHT22;47278;49.732;7.690;2023-06-19T08:54:01;24.40;99.90
61412;DHT22;47278;49.732;7.690;2023-06-19T08:56:27;24.70;99.90
61412;DHT22;47278;49.732;7.690;2023-06-19T08:58:53;24.90;99.90
61412;DHT22;47278;49.732;7.690;2023-06-19T09:01:19;25.20;99.90
61412;DHT22;47278;49.732;7.690;2023-06-19T09:03:48;25.30;99.90
61412;DHT22;47278;49.732;7.690;2023-06-19T09:06:17;25.30;99.90
61412;DHT22;47278;49.732;7.690;2023-06-19T09:08:43;25.40;99.90
61412;DHT22;47278;49.732;7.690;2023-06-19T09:11:10;25.50;99.90
61412;DHT22;47278;49.732;7.690;2023-06-19T09:13:36;25.60;99.90
61412;DHT22;47278;49.732;7.690;2023-06-19T09:16:06;25.60;99.90
61412;DHT22;47278;49.732;7.690;2023-06-19T09:18:41;25.60;99.90
61412;DHT22;47278;49.732;7.690;2023-06-19T09:21:14;25.50;99.90
61412;DHT22;47278;49.732;7.690;2023-06-19T09:23:39;25.30;99.90
61412;DHT22;47278;49.732;7.690;2023-06-19T09:26:05;25.40;99.90
61412;DHT22;47278;49.732;7.690;2023-06-19T09:28:31;25.30;99.90
61412;DHT22;47278;49.732;7.690;2023-06-19T09:30:58;25.30;99.90
61412;DHT22;47278;49.732;7.690;2023-06-19T09:33:25;25.30;99.90
61412;DHT22;47278;49.732;7.690;2023-06-19T09:35:51;25.20;99.90
61412;DHT22;47278;49.732;7.690;2023-06-19T09:38:19;25.40;99.90
61412;DHT22;47278;49.732;7.690;2023-06-19T09:40:45;25.10;99.90
61412;DHT22;47278;49.732;7.690;2023-06-19T09:43:13;25.40;99.90
61412;DHT22;47278;49.732;7.690;2023-06-19T09:45:42;25.60;99.90
61412;DHT22;47278;49.732;7.690;2023-06-19T09:53:40;25.90;99.90
61412;DHT22;47278;49.732;7.690;2023-06-19T09:56:06;25.60;99.90
61412;DHT22;47278;49.732;7.690;2023-06-19T09:58:33;25.60;99.90
61412;DHT22;47278;49.732;7.690;2023-06-19T10:01:01;25.50;99.90
61412;DHT22;47278;49.732;7.690;2023-06-19T10:03:32;25.20;99.90
61412;DHT22;47278;49.732;7.690;2023-06-19T10:05:58;24.90;99.90
61412;DHT22;47278;49.732;7.690;2023-06-19T10:09:05;24.80;99.90
61412;DHT22;47278;49.732;7.690;2023-06-19T10:11:17;25.10;99.90
61412;DHT22;47278;49.732;7.690;2023-06-19T10:13:43;25.50;99.90
61412;DHT22;47278;49.732;7.690;2023-06-19T10:16:22;25.20;99.90
61412;DHT22;47278;49.732;7.690;2023-06-19T10:18:47;25.30;99.90
61412;DHT22;47278;49.732;7.690;2023-06-19T10:21:17;25.30;99.90
61412;DHT22;47278;49.732;7.690;2023-06-19T10:23:43;27.00;99.90
61412;DHT22;47278;49.732;7.690;2023-06-19T10:26:18;25.50;99.90
61412;DHT22;47278;49.732;7.690;2023-06-19T10:28:46;26.10;99.90
61412;DHT22;47278;49.732;7.690;2023-06-19T10:34:16;26.00;99.90
61412;DHT22;47278;49.732;7.690;2023-06-19T10:36:41;25.80;99.90
61412;DHT22;47278;49.732;7.690;2023-06-19T10:39:07;26.40;99.90
61412;DHT22;47278;49.732;7.690;2023-06-19T10:41:34;26.30;99.90
61412;DHT22;47278;49.732;7.690;2023-06-19T10:49:29;26.90;99.90
61412;DHT22;47278;49.732;7.690;2023-06-19T10:51:54;27.20;99.90
61412;DHT22;47278;49.732;7.690;2023-06-19T10:54:24;27.30;99.90
61412;DHT22;47278;49.732;7.690;2023-06-19T10:56:50;26.40;99.90
61412;DHT22;47278;49.732;7.690;2023-06-19T10:59:16;26.30;99.90
61412;DHT22;47278;49.732;7.690;2023-06-19T11:01:47;27.30;99.90
61412;DHT22;47278;49.732;7.690;2023-06-19T11:04:13;27.80;99.90
61412;DHT22;47278;49.732;7.690;2023-06-19T11:06:40;27.80;99.90
61412;DHT22;47278;49.732;7.690;2023-06-19T11:09:07;27.20;99.90
61412;DHT22;47278;49.732;7.690;2023-06-19T11:11:46;27.20;99.90
61412;DHT22;47278;49.732;7.690;2023-06-19T11:14:13;27.50;99.90
61412;DHT22;47278;49.732;7.690;2023-06-19T11:16:43;27.30;99.90
61412;DHT22;47278;49.732;7.690;2023-06-19T11:19:13;27.40;99.90
61412;DHT22;47278;49.732;7.690;2023-06-19T11:21:39;27.60;99.90
61412;DHT22;47278;49.732;7.690;2023-06-19T11:24:05;27.70;99.90
61412;DHT22;47278;49.732;7.690;2023-06-19T11:26:35;27.60;99.90
61412;DHT22;47278;49.732;7.690;2023-06-19T11:29:12;27.40;99.90
61412;DHT22;47278;49.732;7.690;2023-06-19T11:31:39;28.00;99.90
61412;DHT22;47278;49.732;7.690;2023-06-19T11:34:04;28.30;99.90
61412;DHT22;47278;49.732;7.690;2023-06-19T11:36:30;27.60;99.90
61412;DHT22;47278;49.732;7.690;2023-06-19T11:38:56;28.30;99.90
61412;DHT22;47278;49.732;7.690;2023-06-19T11:41:25;28.10;99.90
61412;DHT22;47278;49.732;7.690;2023-06-19T11:43:58;28.00;99.90
61412;DHT22;47278;49.732;7.690;2023-06-19T11:46:28;28.60;99.90
61412;DHT22;47278;49.732;7.690;2023-06-19T11:48:55;28.60;99.90
61412;DHT22;47278;49.732;7.690;2023-06-19T11:51:21;28.10;99.90
61412;DHT22;47278;49.732;7.690;2023-06-19T11:53:47;28.60;99.90
61412;DHT22;47278;49.732;7.690;2023-06-19T11:56:13;29.00;99.90
61412;DHT22;47278;49.732;7.690;2023-06-19T11:58:38;28.90;99.90
61412;DHT22;47278;49.732;7.690;2023-06-19T12:01:04;29.40;99.90
61412;DHT22;47278;49.732;7.690;2023-06-19T12:03:30;29.40;99.90
61412;DHT22;47278;49.732;7.690;2023-06-19T12:05:55;29.20;99.90
61412;DHT22;47278;49.732;7.690;2023-06-19T12:08:21;29.20;99.90
61412;DHT22;47278;49.732;7.690;2023-06-19T12:10:48;29.70;99.90
61412;DHT22;47278;49.732;7.690;2023-06-19T12:13:14;28.50;99.90
61412;DHT22;47278;49.732;7.690;2023-06-19T12:15:40;28.30;99.90
61412;DHT22;47278;49.732;7.690;2023-06-19T12:18:05;28.30;99.90
61412;DHT22;47278;49.732;7.690;2023-06-19T12:20:32;28.80;99.90
61412;DHT22;47278;49.732;7.690;2023-06-19T12:22:58;29.10;99.90
61412;DHT22;47278;49.732;7.690;2023-06-19T12:25:23;29.10;99.90
61412;DHT22;47278;49.732;7.690;2023-06-19T12:27:49;28.10;99.90
61412;DHT22;47278;49.732;7.690;2023-06-19T12:30:16;27.70;99.90
61412;DHT22;47278;49.732;7.690;2023-06-19T12:32:44;27.90;99.90
61412;DHT22;47278;49.732;7.690;2023-06-19T12:35:10;27.90;99.90
61412;DHT22;47278;49.732;7.690;2023-06-19T12:37:35;27.90;99.90
61412;DHT22;47278;49.732;7.690;2023-06-19T12:40:01;28.30;99.90
61412;DHT22;47278;49.732;7.690;2023-06-19T12:42:33;28.60;99.90
61412;DHT22;47278;49.732;7.690;2023-06-19T12:44:59;29.50;99.90
61412;DHT22;47278;49.732;7.690;2023-06-19T12:47:24;29.60;99.90
61412;DHT22;47278;49.732;7.690;2023-06-19T12:49:50;30.10;99.90
61412;DHT22;47278;49.732;7.690;2023-06-19T12:52:16;29.70;99.90
61412;DHT22;47278;49.732;7.690;2023-06-19T12:54:42;29.20;99.90
61412;DHT22;47278;49.732;7.690;2023-06-19T12:57:08;29.20;99.90
61412;DHT22;47278;49.732;7.690;2023-06-19T12:59:34;29.40;99.90
61412;DHT22;47278;49.732;7.690;2023-06-19T13:02:00;29.70;99.90
61412;DHT22;47278;49.732;7.690;2023-06-19T13:04:26;28.80;99.90
61412;DHT22;47278;49.732;7.690;2023-06-19T13:06:51;29.10;99.90
61412;DHT22;47278;49.732;7.690;2023-06-19T13:09:17;29.60;99.90
61412;DHT22;47278;49.732;7.690;2023-06-19T13:11:43;30.30;99.90
61412;DHT22;47278;49.732;7.690;2023-06-19T13:14:09;31.00;99.90
61412;DHT22;47278;49.732;7.690;2023-06-19T13:16:34;31.50;99.90
61412;DHT22;47278;49.732;7.690;2023-06-19T13:19:00;30.60;99.90
61412;DHT22;47278;49.732;7.690;2023-06-19T13:21:26;29.80;99.90
61412;DHT22;47278;49.732;7.690;2023-06-19T13:23:51;30.10;99.90
61412;DHT22;47278;49.732;7.690;2023-06-19T13:26:17;29.50;99.90
61412;DHT22;47278;49.732;7.690;2023-06-19T13:28:43;30.10;99.90
61412;DHT22;47278;49.732;7.690;2023-06-19T13:31:09;30.20;99.90
61412;DHT22;47278;49.732;7.690;2023-06-19T13:33:35;29.50;99.90
61412;DHT22;47278;49.732;7.690;2023-06-19T13:39:03;30.30;99.90
61412;DHT22;47278;49.732;7.690;2023-06-19T13:41:29;30.20;99.90
61412;DHT22;47278;49.732;7.690;2023-06-19T13:43:58;30.80;99.90
61412;DHT22;47278;49.732;7.690;2023-06-19T13:46:24;30.80;99.90
61412;DHT22;47278;49.732;7.690;2023-06-19T13:48:50;29.80;99.90
61412;DHT22;47278;49.732;7.690;2023-06-19T13:51:17;29.20;99.90
61412;DHT22;47278;49.732;7.690;2023-06-19T13:53:43;28.70;99.90
61412;DHT22;47278;49.732;7.690;2023-06-19T13:56:10;28.80;99.90
61412;DHT22;47278;49.732;7.690;2023-06-19T13:58:35;28.90;99.90
61412;DHT22;47278;49.732;7.690;2023-06-19T14:01:01;28.70;99.90
61412;DHT22;47278;49.732;7.690;2023-06-19T14:03:27;28.60;99.90
61412;DHT22;47278;49.732;7.690;2023-06-19T14:05:53;29.00;99.90
61412;DHT22;47278;49.732;7.690;2023-06-19T14:08:19;29.10;99.90
61412;DHT22;47278;49.732;7.690;2023-06-19T14:10:45;28.90;99.90
61412;DHT22;47278;49.732;7.690;2023-06-19T14:13:11;29.10;99.90
61412;DHT22;47278;49.732;7.690;2023-06-19T14:15:36;29.30;99.90
61412;DHT22;47278;49.732;7.690;2023-06-19T14:18:02;29.10;99.90
61412;DHT22;47278;49.732;7.690;2023-06-19T14:20:28;29.10;99.90
61412;DHT22;47278;49.732;7.690;2023-06-19T14:22:54;28.90;99.90
61412;DHT22;47278;49.732;7.690;2023-06-19T14:25:19;28.90;99.90
61412;DHT22;47278;49.732;7.690;2023-06-19T14:27:45;29.20;99.90
61412;DHT22;47278;49.732;7.690;2023-06-19T14:30:11;29.50;99.90
61412;DHT22;47278;49.732;7.690;2023-06-19T14:32:37;29.60;99.90
61412;DHT22;47278;49.732;7.690;2023-06-19T14:35:03;29.10;99.90
61412;DHT22;47278;49.732;7.690;2023-06-19T14:37:29;28.80;99.90
61412;DHT22;47278;49.732;7.690;2023-06-19T14:39:54;28.60;99.90
61412;DHT22;47278;49.732;7.690;2023-06-19T14:42:21;28.50;99.90
61412;DHT22;47278;49.732;7.690;2023-06-19T14:47:51;28.40;99.90
61412;DHT22;47278;49.732;7.690;2023-06-19T14:50:16;28.30;99.90
61412;DHT22;47278;49.732;7.690;2023-06-19T14:52:42;28.50;99.90
61412;DHT22;47278;49.732;7.690;2023-06-19T14:55:08;28.50;99.90
61412;DHT22;47278;49.732;7.690;2023-06-19T14:57:34;29.00;99.90
61412;DHT22;47278;49.732;7.690;2023-06-19T15:00:00;29.40;99.90
61412;DHT22;47278;49.732;7.690;2023-06-19T15:02:26;29.50;99.90
61412;DHT22;47278;49.732;7.690;2023-06-19T15:04:52;28.20;99.90
61412;DHT22;47278;49.732;7.690;2023-06-19T15:07:18;28.90;99.90
61412;DHT22;47278;49.732;7.690;2023-06-19T15:09:43;28.70;99.90
61412;DHT22;47278;49.732;7.690;2023-06-19T15:12:09;28.90;99.90
61412;DHT22;47278;49.732;7.690;2023-06-19T15:14:35;29.50;99.90
61412;DHT22;47278;49.732;7.690;2023-06-19T15:17:03;29.80;99.90
61412;DHT22;47278;49.732;7.690;2023-06-19T15:19:29;29.30;99.90
61412;DHT22;47278;49.732;7.690;2023-06-19T15:21:56;29.10;99.90
61412;DHT22;47278;49.732;7.690;2023-06-19T15:24:22;29.30;99.90
61412;DHT22;47278;49.732;7.690;2023-06-19T15:26:47;28.70;99.90
61412;DHT22;47278;49.732;7.690;2023-06-19T15:29:13;29.80;99.90
61412;DHT22;47278;49.732;7.690;2023-06-19T15:31:39;30.00;99.90
61412;DHT22;47278;49.732;7.690;2023-06-19T15:34:04;29.60;99.90
61412;DHT22;47278;49.732;7.690;2023-06-19T15:36:30;29.30;99.90
61412;DHT22;47278;49.732;7.690;2023-06-19T15:38:56;28.80;99.90
61412;DHT22;47278;49.732;7.690;2023-06-19T15:41:22;28.50;99.90
61412;DHT22;47278;49.732;7.690;2023-06-19T15:43:49;28.20;99.90
61412;DHT22;47278;49.732;7.690;2023-06-19T15:46:14;28.00;99.90
61412;DHT22;47278;49.732;7.690;2023-06-19T15:48:40;28.00;99.90